Time;durP1;ratioP1;P1;durP2;ratioP2;P2;SDS_P1;SDS_P2;PMS_P1;PMS_P2;Temp;Humidity;BMP_temperature;BMP_pressure;BME280_temperature;BME280_humidity;BME280_pressure;Samples;Min_cycle;Max_cycle;Signal;HPM_P1;HPM_P2
2022/01/23 00:00:55;;;;;;;37.10;18.45;;;;;;;4.24;92.96;103489.97;5022618;28;20581;-78
2022/01/23 00:03:21;;;;;;;45.95;20.50;;;;;;;4.24;92.77;103483.66;5030639;28;20018;-79
2022/01/23 00:05:48;;;;;;;35.83;18.73;;;;;;;4.24;92.97;103475.56;5022114;28;20022;-78
2022/01/23 00:08:18;;;;;;;36.85;18.52;;;;;;;4.22;92.94;103467.50;5024177;28;20017;-78
2022/01/23 00:10:43;;;;;;;40.95;19.60;;;;;;;4.21;92.79;103462.13;5011003;28;20034;-77
2022/01/23 00:13:23;;;;;;;38.90;19.65;;;;;;;4.21;93.00;103468.41;5024213;28;20553;-75
2022/01/23 00:18:32;;;;;;;39.08;18.55;;;;;;;4.21;92.64;103463.03;5011496;28;20398;-78
2022/01/23 00:20:58;;;;;;;39.42;17.80;;;;;;;4.21;93.09;103468.41;5024313;28;20049;-78
2022/01/23 00:30:18;;;;;;;37.40;17.20;;;;;;;4.21;93.10;103454.94;5026550;28;20037;-78
2022/01/23 00:31:46;;;;;;;42.25;18.90;;;;;;;4.22;92.55;103461.22;5021622;28;20084;-77
2022/01/23 00:34:11;;;;;;;39.08;18.33;;;;;;;4.22;92.86;103450.44;5029995;28;20413;-77
2022/01/23 00:36:36;;;;;;;37.63;18.50;;;;;;;4.23;92.76;103449.53;5014927;28;20026;-77
2022/01/23 00:39:03;;;;;;;38.05;17.73;;;;;;;4.23;92.81;103446.84;5028762;28;20029;-77
2022/01/23 00:41:29;;;;;;;37.67;18.02;;;;;;;4.23;92.57;103454.91;5018188;28;20036;-77
2022/01/23 00:43:54;;;;;;;38.40;18.55;;;;;;;4.23;92.63;103452.22;5022782;28;20416;-76
2022/01/23 00:49:30;;;;;;;37.15;16.85;;;;;;;4.24;92.98;103457.63;5031373;28;20029;-77
2022/01/23 00:51:39;;;;;;;43.65;17.80;;;;;;;4.27;92.95;103449.50;5026466;28;20079;-76
2022/01/23 00:54:08;;;;;;;33.40;16.85;;;;;;;4.26;92.87;103455.81;5013316;28;20121;-77
2022/01/23 00:56:33;;;;;;;35.30;17.85;;;;;;;4.24;92.54;103446.84;5025731;28;20033;-76
2022/01/23 00:58:59;;;;;;;35.38;17.25;;;;;;;4.26;92.63;103449.53;5019244;28;20076;-77
2022/01/23 01:01:25;;;;;;;33.55;17.38;;;;;;;4.26;92.65;103455.81;5035649;28;20025;-77
2022/01/23 01:03:52;;;;;;;37.08;17.73;;;;;;;4.28;92.39;103451.31;5028183;28;20429;-78
2022/01/23 01:06:18;;;;;;;39.28;18.70;;;;;;;4.26;92.35;103449.53;5026804;28;20026;-75
2022/01/23 01:08:46;;;;;;;33.72;16.92;;;;;;;4.26;92.17;103449.53;5027629;28;20033;-77
2022/01/23 01:14:18;;;;;;;38.50;17.02;;;;;;;4.22;92.36;103436.97;5023518;28;20033;-77
2022/01/23 01:30:17;;;;;;;39.78;17.63;;;;;;;4.20;92.70;103447.75;5023269;28;20520;-77
2022/01/23 01:33:34;;;;;;;42.22;17.88;;;;;;;4.20;92.58;103449.56;5016412;28;20033;-77
2022/01/23 01:37:59;;;;;;;34.75;16.90;;;;;;;4.19;92.58;103439.66;5015565;28;20037;-77
2022/01/23 01:40:25;;;;;;;38.35;17.33;;;;;;;4.18;92.81;103438.78;5018144;28;20497;-77
2022/01/23 01:42:52;;;;;;;35.25;16.77;;;;;;;4.18;92.73;103449.56;5018165;28;20124;-77
2022/01/23 01:45:22;;;;;;;33.42;16.98;;;;;;;4.18;92.78;103452.25;5026850;28;20377;-76
2022/01/23 01:47:50;;;;;;;33.83;16.17;;;;;;;4.20;92.64;103452.25;5025503;28;20033;-78
2022/01/23 01:50:15;;;;;;;35.85;17.15;;;;;;;4.21;92.47;103451.34;5014900;28;20132;-75
2022/01/23 01:52:41;;;;;;;36.75;16.63;;;;;;;4.17;92.46;103452.25;5020067;28;20041;-77
2022/01/23 01:55:10;;;;;;;35.58;16.77;;;;;;;4.20;92.56;103460.34;5026990;28;20025;-78
2022/01/23 01:57:40;;;;;;;35.80;17.30;;;;;;;4.19;92.42;103458.53;5025820;28;20044;-76
2022/01/23 02:00:24;;;;;;;34.83;17.00;;;;;;;4.20;92.47;103461.25;5025653;28;20667;-78
2022/01/23 02:08:23;;;;;;;32.00;16.15;;;;;;;4.17;92.90;103474.72;5014317;28;20591;-78
2022/01/23 02:10:53;;;;;;;33.78;16.95;;;;;;;4.20;92.33;103466.63;5012964;28;20026;-78
2022/01/23 02:13:25;;;;;;;36.42;17.15;;;;;;;4.21;92.44;103463.03;5026655;28;20041;-78
2022/01/23 02:24:05;;;;;;;35.67;16.20;;;;;;;4.17;92.76;103442.38;5028748;28;20543;-76
2022/01/23 02:51:39;;;;;;;37.42;16.45;;;;;;;4.16;92.71;103423.53;5028684;28;20108;-76
2022/01/23 02:56:52;;;;;;;34.80;15.70;;;;;;;4.17;93.25;103422.63;5022010;28;20543;-77
2022/01/23 02:59:25;;;;;;;29.73;14.90;;;;;;;4.18;92.84;103417.22;5014001;28;20048;-76
2022/01/23 03:04:26;;;;;;;32.47;15.80;;;;;;;4.18;93.13;103422.59;5017688;28;20029;-77
2022/01/23 03:07:09;;;;;;;36.13;15.40;;;;;;;4.16;92.98;103418.16;5014329;28;20693;-77
2022/01/23 03:12:10;;;;;;;33.22;15.88;;;;;;;4.19;92.85;103421.69;5021756;28;20056;-77
2022/01/23 03:14:47;;;;;;;36.15;16.17;;;;;;;4.15;92.95;103410.94;5013240;28;20109;-78
2022/01/23 03:28:27;;;;;;;35.42;15.50;;;;;;;4.18;92.59;103433.38;5014896;28;20147;-76
2022/01/23 03:33:39;;;;;;;31.08;14.38;;;;;;;4.18;92.74;103435.19;5027258;28;20075;-77
2022/01/23 03:36:04;;;;;;;35.55;15.55;;;;;;;4.18;92.57;103436.09;5026120;28;20028;-77
2022/01/23 03:38:31;;;;;;;29.40;15.80;;;;;;;4.18;92.67;103433.38;5027375;28;20017;-75
2022/01/23 03:40:56;;;;;;;30.95;15.73;;;;;;;4.20;92.78;103439.69;5010289;28;20065;-77
2022/01/23 03:43:28;;;;;;;30.48;14.77;;;;;;;4.20;92.50;103436.09;5017563;28;20123;-77
2022/01/23 03:46:19;;;;;;;29.37;15.43;;;;;;;4.20;92.58;103442.38;5021299;28;20042;-75
2022/01/23 03:51:11;;;;;;;34.22;15.95;;;;;;;4.22;92.44;103440.56;5026846;28;20474;-77
2022/01/23 03:53:37;;;;;;;30.23;15.45;;;;;;;4.21;92.39;103443.28;5016510;28;20104;-77
2022/01/23 03:56:03;;;;;;;32.83;15.73;;;;;;;4.20;92.72;103441.47;5024281;28;20079;-77
2022/01/23 03:58:28;;;;;;;31.95;15.13;;;;;;;4.21;92.64;103445.97;5017401;28;20046;-77
2022/01/23 04:00:54;;;;;;;34.72;16.65;;;;;;;4.20;92.40;103453.16;5020883;28;20041;-78
2022/01/23 04:03:19;;;;;;;32.08;17.08;;;;;;;4.18;92.27;103451.34;5006488;28;20401;-77
2022/01/23 04:05:45;;;;;;;32.17;16.65;;;;;;;4.18;92.41;103445.97;5027713;28;20025;-77
2022/01/23 04:08:11;;;;;;;29.67;15.40;;;;;;;4.18;92.45;103445.97;5025245;28;20060;-77
2022/01/23 04:10:37;;;;;;;33.60;17.65;;;;;;;4.17;92.58;103447.75;5016748;28;20715;-77
2022/01/23 04:13:17;;;;;;;30.63;15.45;;;;;;;4.19;92.55;103454.03;5015731;28;20033;-77
2022/01/23 04:32:15;;;;;;;32.60;16.15;;;;;;;4.13;93.05;103464.84;5016778;28;20115;-74
2022/01/23 05:04:15;;;;;;;39.33;16.73;;;;;;;4.07;93.30;103463.06;5029211;28;20041;-77
2022/01/23 05:06:46;;;;;;;;;;;;;;;4.12;93.04;103465.75;5024013;28;20025;-77
2022/01/23 05:09:14;;;;;;;33.10;15.35;;;;;;;4.09;92.91;103463.94;5027431;28;19909;-78
2022/01/23 05:11:51;;;;;;;32.28;14.98;;;;;;;4.09;93.39;103453.16;5011091;28;20056;-78
2022/01/23 05:14:21;;;;;;;36.65;17.05;;;;;;;4.08;93.07;103455.88;5019799;28;20055;-77
2022/01/23 05:16:46;;;;;;;35.58;16.95;;;;;;;4.07;93.24;103456.78;5019276;28;20029;-77
2022/01/23 05:19:12;;;;;;;38.90;17.30;;;;;;;4.08;93.28;103459.47;5029304;28;20128;-77
2022/01/23 05:24:08;;;;;;;31.83;16.90;;;;;;;4.05;93.10;103450.50;5029050;28;20057;-75
2022/01/23 05:26:42;;;;;;;36.58;17.60;;;;;;;4.05;93.46;103458.56;5024812;28;20468;-76
2022/01/23 05:29:07;;;;;;;33.63;16.75;;;;;;;4.04;93.13;103460.38;5018191;28;20029;-77
2022/01/23 05:31:32;;;;;;;35.25;15.85;;;;;;;4.05;93.10;103462.16;5016932;28;20026;-75
2022/01/23 05:33:57;;;;;;;37.28;15.98;;;;;;;4.04;93.40;103465.75;5015789;28;20079;-77
2022/01/23 05:36:23;;;;;;;38.67;17.17;;;;;;;4.00;93.43;103457.69;5019846;28;20397;-75
2022/01/23 05:38:48;;;;;;;39.85;16.58;;;;;;;4.04;92.99;103471.16;5029535;28;20031;-77
2022/01/23 05:41:13;;;;;;;43.03;16.45;;;;;;;4.02;93.41;103461.28;5010423;28;20091;-78
2022/01/23 05:43:39;;;;;;;31.83;15.90;;;;;;;4.03;93.57;103465.78;5015679;28;20386;-76
2022/01/23 05:46:04;;;;;;;40.83;17.08;;;;;;;4.00;93.42;103471.16;5022885;28;20026;-77
2022/01/23 05:48:29;;;;;;;29.52;16.27;;;;;;;3.98;93.64;103464.91;5024321;28;20108;-77
2022/01/23 05:50:54;;;;;;;36.50;16.77;;;;;;;3.96;93.59;103467.56;5029149;28;20103;-75
2022/01/23 05:53:20;;;;;;;36.17;15.98;;;;;;;3.97;93.60;103468.50;5016705;28;20037;-78
2022/01/23 05:55:45;;;;;;;36.55;16.75;;;;;;;3.94;93.74;103457.72;5019750;28;20025;-77
2022/01/23 05:58:10;;;;;;;33.33;15.77;;;;;;;3.94;93.66;103453.22;5023969;28;20076;-77
2022/01/23 06:00:36;;;;;;;38.17;17.00;;;;;;;3.94;93.93;103447.84;5023646;28;20087;-77
2022/01/23 06:03:01;;;;;;;40.72;17.17;;;;;;;3.93;93.54;103443.38;5014724;28;20508;-76
2022/01/23 06:05:26;;;;;;;41.53;17.42;;;;;;;3.95;93.69;103448.75;5027785;28;20025;-77
2022/01/23 06:07:51;;;;;;;33.95;15.70;;;;;;;3.96;93.96;103453.22;5027496;28;20030;-77
2022/01/23 06:10:24;;;;;;;37.38;16.77;;;;;;;3.95;93.52;103454.13;5029384;28;20040;-77
2022/01/23 06:12:50;;;;;;;36.17;16.35;;;;;;;3.96;93.93;103445.13;5018850;28;20385;-75
2022/01/23 06:15:16;;;;;;;40.42;18.30;;;;;;;3.95;93.96;103462.19;5017454;28;20033;-76
2022/01/23 06:17:42;;;;;;;41.85;17.95;;;;;;;3.92;93.62;103452.34;5020662;28;20033;-77
2022/01/23 06:20:10;;;;;;;41.92;16.85;;;;;;;3.94;93.93;103466.69;5029629;28;20461;-77
2022/01/23 06:22:35;;;;;;;44.38;19.17;;;;;;;3.90;93.74;103456.81;5024605;28;20030;-77
2022/01/23 06:25:03;;;;;;;39.50;17.90;;;;;;;3.93;93.63;103454.13;5017820;28;20041;-77
2022/01/23 06:27:29;;;;;;;39.88;18.10;;;;;;;3.95;93.59;103465.78;5020708;28;20112;-77
2022/01/23 06:29:54;;;;;;;35.00;15.80;;;;;;;3.96;93.48;103464.00;5018444;28;20117;-77
2022/01/23 06:32:19;;;;;;;42.75;18.63;;;;;;;3.94;93.84;103469.38;5020559;28;20104;-76
2022/01/23 06:34:46;;;;;;;40.45;19.20;;;;;;;3.94;93.68;103468.50;5026240;28;20108;-77
2022/01/23 06:37:12;;;;;;;42.08;19.42;;;;;;;3.95;93.54;103455.00;5023201;28;20060;-78
2022/01/23 06:39:37;;;;;;;37.58;18.15;;;;;;;3.94;93.51;103455.03;5013855;28;20037;-77
2022/01/23 06:42:03;;;;;;;34.95;17.45;;;;;;;3.94;93.36;103468.50;5009849;28;20490;-77
2022/01/23 06:44:28;;;;;;;35.03;16.65;;;;;;;3.94;93.69;103474.78;5017277;28;20405;-77
2022/01/23 06:46:54;;;;;;;40.40;18.15;;;;;;;3.94;93.72;103474.78;5033640;28;20040;-75
2022/01/23 06:49:19;;;;;;;38.50;17.52;;;;;;;3.94;94.04;103481.97;5027446;28;20067;-77
2022/01/23 06:51:44;;;;;;;35.97;17.63;;;;;;;3.92;93.68;103483.78;5025868;28;20021;-77
2022/01/23 06:54:10;;;;;;;42.22;16.95;;;;;;;3.92;94.28;103483.78;5026926;28;20029;-78
2022/01/23 06:56:36;;;;;;;41.85;18.40;;;;;;;3.89;94.03;103481.06;5026776;28;20033;-77
2022/01/23 06:59:01;;;;;;;40.85;17.52;;;;;;;3.89;93.92;103484.66;5012280;28;20053;-77
2022/01/23 07:01:26;;;;;;;37.13;18.08;;;;;;;3.92;94.25;103489.16;5013937;28;20030;-77
2022/01/23 07:03:52;;;;;;;35.42;17.40;;;;;;;3.91;94.36;103484.66;5021018;28;20053;-77
2022/01/23 07:06:17;;;;;;;38.85;16.33;;;;;;;3.87;93.88;103488.25;5019329;28;20018;-77
2022/01/23 07:08:42;;;;;;;34.88;16.85;;;;;;;3.86;93.93;103491.84;5023766;28;20377;-78
2022/01/23 07:11:08;;;;;;;38.53;15.80;;;;;;;3.88;94.18;103504.41;5019048;28;20064;-74
2022/01/23 07:13:33;;;;;;;35.85;17.27;;;;;;;3.84;94.38;103506.22;5023844;28;20082;-74
2022/01/23 07:15:58;;;;;;;37.30;16.90;;;;;;;3.86;94.39;103502.63;5020484;28;20409;-76
2022/01/23 07:18:24;;;;;;;40.33;18.80;;;;;;;3.82;93.80;103507.09;5025077;28;20060;-75
2022/01/23 07:20:49;;;;;;;44.10;17.77;;;;;;;3.80;94.24;103509.81;5024731;28;20017;-77
2022/01/23 07:23:21;;;;;;;41.25;17.02;;;;;;;3.82;94.35;103510.72;5023887;28;20055;-75
2022/01/23 07:25:46;;;;;;;38.15;16.63;;;;;;;3.84;94.26;103516.09;5022951;28;20100;-77
2022/01/23 07:28:14;;;;;;;39.80;18.10;;;;;;;3.86;94.17;103513.38;5023727;28;20119;-77
2022/01/23 07:30:48;;;;;;;31.58;15.25;;;;;;;3.84;94.32;103519.69;5023243;28;20351;-75
2022/01/23 07:33:13;;;;;;;35.00;16.08;;;;;;;3.82;94.16;103524.19;5021481;28;20018;-75
2022/01/23 07:35:39;;;;;;;42.05;17.98;;;;;;;3.82;94.03;103526.88;5022058;28;20060;-77
2022/01/23 07:38:04;;;;;;;40.03;17.40;;;;;;;3.82;94.66;103532.25;5022324;28;20041;-77
2022/01/23 07:40:30;;;;;;;36.50;17.17;;;;;;;3.80;94.42;103530.44;5011338;28;20496;-76
2022/01/23 07:42:55;;;;;;;37.42;16.00;;;;;;;3.82;94.46;103532.25;5015701;28;20034;-77
2022/01/23 07:45:20;;;;;;;37.50;15.90;;;;;;;3.83;94.67;103535.84;5016708;28;20034;-75
2022/01/23 07:47:46;;;;;;;37.40;16.42;;;;;;;3.82;94.74;103534.03;5010344;28;20510;-78
2022/01/23 07:50:12;;;;;;;40.25;18.73;;;;;;;3.82;94.28;103534.03;5019887;28;20022;-78
2022/01/23 07:52:39;;;;;;;37.92;16.70;;;;;;;3.84;94.69;103537.63;5012961;28;20022;-77
2022/01/23 07:55:14;;;;;;;35.30;16.63;;;;;;;3.83;94.39;103528.66;5017367;28;20026;-77
2022/01/23 07:57:42;;;;;;;39.60;16.05;;;;;;;3.85;94.66;103539.41;5025329;28;20029;-77
2022/01/23 08:00:09;;;;;;;41.80;18.08;;;;;;;3.84;94.54;103540.31;5018907;28;20025;-78
2022/01/23 08:02:35;;;;;;;40.15;17.50;;;;;;;3.82;94.66;103537.66;5018154;28;20425;-77
2022/01/23 08:05:00;;;;;;;37.05;18.25;;;;;;;3.82;94.58;103544.78;5013265;28;20029;-78
2022/01/23 08:09:56;;;;;;;35.45;17.42;;;;;;;3.83;94.95;103534.03;5011023;28;20037;-77
2022/01/23 08:12:22;;;;;;;38.22;17.83;;;;;;;3.87;95.04;103539.41;5011446;28;20039;-75
2022/01/23 08:14:47;;;;;;;42.13;17.45;;;;;;;3.84;94.81;103537.63;5026148;28;20021;-76
2022/01/23 08:17:13;;;;;;;37.33;16.88;;;;;;;3.91;94.67;103539.41;5010061;28;20033;-77
2022/01/23 08:19:38;;;;;;;37.28;17.83;;;;;;;3.92;94.83;103546.59;5011432;28;20037;-78
2022/01/23 08:22:04;;;;;;;38.30;17.92;;;;;;;3.92;94.79;103546.59;5009345;28;20029;-77
2022/01/23 08:24:29;;;;;;;40.38;18.00;;;;;;;3.95;94.94;103549.28;5010603;28;20026;-78
2022/01/23 08:26:54;;;;;;;37.38;17.85;;;;;;;3.95;94.74;103551.97;5025079;28;20112;-78
2022/01/23 08:29:19;;;;;;;36.92;18.25;;;;;;;3.98;94.71;103551.97;5025523;28;20030;-77
2022/01/23 08:31:45;;;;;;;43.58;17.95;;;;;;;4.01;94.89;103553.75;5021528;28;20029;-78
2022/01/23 08:34:11;;;;;;;37.88;17.48;;;;;;;4.01;94.65;103551.06;5010779;28;20021;-76
2022/01/23 08:36:37;;;;;;;41.60;18.23;;;;;;;4.04;94.66;103561.84;5010123;28;20452;-78
2022/01/23 08:39:03;;;;;;;42.45;19.73;;;;;;;4.04;94.53;103556.44;5012177;28;20081;-76
2022/01/23 08:44:13;;;;;;;47.33;18.63;;;;;;;4.09;94.50;103558.22;5021414;28;20101;-77
2022/01/23 08:46:38;;;;;;;42.63;18.63;;;;;;;4.14;94.15;103566.31;5022663;28;20021;-76
2022/01/23 08:49:03;;;;;;;44.55;17.55;;;;;;;4.17;94.60;103571.69;5027871;28;20025;-77
2022/01/23 08:51:28;;;;;;;40.17;17.95;;;;;;;4.21;94.75;103577.97;5028004;28;20071;-75
2022/01/23 08:53:54;;;;;;;40.05;18.25;;;;;;;4.22;94.46;103575.28;5023737;28;20042;-78
2022/01/23 08:56:19;;;;;;;41.55;17.67;;;;;;;4.26;94.44;103568.09;5024654;28;20480;-78
2022/01/23 08:58:44;;;;;;;54.40;20.20;;;;;;;4.27;94.66;103578.84;5025779;28;20045;-79
2022/01/23 09:01:10;;;;;;;38.90;18.13;;;;;;;4.31;94.61;103577.06;5022622;28;20034;-77
2022/01/23 09:03:35;;;;;;;42.88;18.60;;;;;;;4.29;94.25;103578.84;5027801;28;20024;-78
2022/01/23 09:06:01;;;;;;;40.80;18.05;;;;;;;4.35;94.78;103585.13;5025525;28;20363;-77
2022/01/23 09:08:26;;;;;;;41.70;19.45;;;;;;;4.37;94.37;103579.72;5027653;28;20034;-76
2022/01/23 09:10:57;;;;;;;40.22;17.65;;;;;;;4.41;94.62;103578.81;5022941;28;20060;-76
2022/01/23 09:13:40;;;;;;;46.50;20.20;;;;;;;4.44;94.38;103573.44;5023256;28;20025;-78
2022/01/23 09:16:07;;;;;;;45.60;20.05;;;;;;;4.46;94.37;103571.63;5021419;28;20124;-78
2022/01/23 09:18:33;;;;;;;39.75;20.63;;;;;;;4.46;94.31;103579.69;5025545;28;20894;-78
2022/01/23 09:20:58;;;;;;;47.45;21.95;;;;;;;4.50;94.41;103568.00;5024313;28;20029;-78
2022/01/23 09:23:24;;;;;;;44.63;21.77;;;;;;;4.55;94.29;103571.59;5025531;28;20036;-75
2022/01/23 09:25:50;;;;;;;44.97;21.67;;;;;;;4.58;93.95;103568.88;5019873;28;20124;-78
2022/01/23 09:28:17;;;;;;;51.05;21.23;;;;;;;4.60;93.63;103566.19;5015745;28;20075;-76
2022/01/23 09:30:48;;;;;;;51.20;24.52;;;;;;;4.64;93.55;103567.06;5019328;28;20036;-77
2022/01/23 09:33:14;;;;;;;49.85;21.10;;;;;;;4.65;93.42;103572.44;5009508;28;20030;-77
2022/01/23 09:35:39;;;;;;;48.40;21.40;;;;;;;4.68;93.60;103568.84;5009342;28;20032;-78
2022/01/23 09:38:05;;;;;;;50.85;22.65;;;;;;;4.73;93.39;103576.00;5018414;28;20033;-76
2022/01/23 09:40:30;;;;;;;46.22;23.27;;;;;;;4.72;93.25;103566.16;5019026;28;20021;-76
2022/01/23 09:43:04;;;;;;;53.30;21.58;;;;;;;4.81;92.87;103584.09;5019299;28;20108;-77
2022/01/23 09:45:30;;;;;;;47.80;20.35;;;;;;;4.83;92.37;103583.16;5023795;28;20022;-76
2022/01/23 09:47:56;;;;;;;46.88;21.95;;;;;;;4.87;92.44;103586.75;5025314;28;20465;-76
2022/01/23 09:50:21;;;;;;;45.78;20.63;;;;;;;4.86;92.07;103580.47;5026285;28;20083;-78
2022/01/23 09:52:47;;;;;;;49.58;21.92;;;;;;;4.93;92.57;103580.41;5018641;28;20022;-76
2022/01/23 09:55:13;;;;;;;42.45;20.77;;;;;;;4.97;92.89;103584.91;5009156;28;20049;-77
2022/01/23 09:57:45;;;;;;;40.90;19.60;;;;;;;5.00;92.14;103591.19;5008499;28;20477;-77
2022/01/23 10:00:14;;;;;;;47.22;22.05;;;;;;;5.00;92.19;103585.78;5014480;28;20412;-77
2022/01/23 10:02:40;;;;;;;44.22;21.23;;;;;;;5.07;92.70;103597.44;5013733;28;20034;-77
2022/01/23 10:05:06;;;;;;;48.13;21.50;;;;;;;5.09;92.27;103598.34;5010478;28;20109;-74
2022/01/23 10:07:35;;;;;;;55.17;22.08;;;;;;;5.15;92.59;103594.69;5023943;28;20021;-78
2022/01/23 10:10:16;;;;;;;47.38;21.90;;;;;;;5.18;92.41;103587.50;5012928;28;20033;-74
2022/01/23 10:12:45;;;;;;;44.30;20.23;;;;;;;5.24;92.34;103591.94;5023208;28;20108;-77
2022/01/23 10:15:11;;;;;;;51.33;22.25;;;;;;;5.27;92.08;103595.53;5025741;28;20029;-75
2022/01/23 10:17:37;;;;;;;44.17;20.50;;;;;;;5.33;92.01;103583.81;5011560;28;20083;-75
2022/01/23 10:20:05;;;;;;;46.05;22.30;;;;;;;5.37;92.16;103585.56;5008499;28;20516;-77
2022/01/23 10:22:32;;;;;;;43.78;21.00;;;;;;;5.38;91.19;103579.25;5007919;28;20030;-77
2022/01/23 10:25:12;;;;;;;43.72;21.88;;;;;;;5.43;91.26;103588.22;5014244;28;20187;-77
2022/01/23 10:28:02;;;;;;;45.15;21.67;;;;;;;5.48;92.07;103588.19;5024275;28;20027;-75
2022/01/23 10:30:38;;;;;;;50.15;21.67;;;;;;;5.52;92.09;103588.16;5023179;28;20025;-77
2022/01/23 10:33:17;;;;;;;49.80;21.52;;;;;;;5.57;91.63;103583.63;5019263;28;20383;-77
2022/01/23 10:36:01;;;;;;;38.80;19.92;;;;;;;5.60;91.45;103580.91;5008049;28;20492;-77
2022/01/23 10:38:52;;;;;;;49.65;22.15;;;;;;;5.66;91.86;103582.66;5008146;28;20494;-76
2022/01/23 10:49:46;;;;;;;40.78;19.50;;;;;;;5.77;91.09;103585.25;5024861;28;20124;-77
2022/01/23 10:52:26;;;;;;;45.75;22.05;;;;;;;5.82;91.44;103586.13;5026807;28;20168;-77
2022/01/23 10:54:52;;;;;;;43.80;20.58;;;;;;;5.85;90.71;103580.69;5021618;28;20017;-75
2022/01/23 10:57:17;;;;;;;46.40;19.58;;;;;;;5.87;90.54;103574.38;5022574;28;20104;-77
2022/01/23 10:59:49;;;;;;;46.55;21.73;;;;;;;5.90;89.96;103578.84;5013893;28;20037;-78
2022/01/23 11:02:21;;;;;;;42.60;19.48;;;;;;;5.87;89.19;103579.78;5008309;28;20056;-77
2022/01/23 11:05:01;;;;;;;40.63;19.20;;;;;;;5.90;89.55;103586.94;5008488;28;20451;-75
2022/01/23 11:07:28;;;;;;;41.63;20.45;;;;;;;5.87;89.12;103585.19;5017568;28;20101;-77
2022/01/23 11:10:10;;;;;;;39.75;19.40;;;;;;;5.90;89.75;103581.56;5008138;28;20549;-75
2022/01/23 11:12:46;;;;;;;48.03;21.10;;;;;;;5.96;89.16;103583.31;5006657;28;20025;-74
2022/01/23 11:18:00;;;;;;;42.58;19.98;;;;;;;6.02;89.60;103567.09;5010445;28;20048;-75
2022/01/23 11:20:29;;;;;;;39.88;20.02;;;;;;;6.09;88.97;103563.38;5007700;28;20464;-77
2022/01/23 11:23:27;;;;;;;40.85;20.52;;;;;;;6.10;89.66;103559.78;5005715;28;20034;-77
2022/01/23 11:25:55;;;;;;;43.40;19.90;;;;;;;6.18;89.75;103562.41;5011763;28;20026;-74
2022/01/23 11:28:28;;;;;;;39.65;18.80;;;;;;;6.23;90.20;103557.84;5007223;28;20042;-77
2022/01/23 11:30:54;;;;;;;43.35;19.50;;;;;;;6.25;89.40;103564.13;5007199;28;20058;-77
2022/01/23 11:33:19;;;;;;;48.95;20.75;;;;;;;6.31;88.89;103556.84;5022330;28;20029;-77
2022/01/23 11:35:46;;;;;;;38.70;18.75;;;;;;;6.35;89.65;103557.72;5015660;28;20037;-77
2022/01/23 11:38:16;;;;;;;36.55;19.48;;;;;;;6.37;88.54;103551.38;5021004;28;20100;-77
2022/01/23 11:50:41;;;;;;;40.38;21.25;;;;;;;6.38;88.98;103536.94;5012972;28;20108;-77
2022/01/23 11:54:51;;;;;;;38.08;19.77;;;;;;;6.64;87.26;103543.84;5015894;28;20091;-77
2022/01/23 11:57:45;;;;;;;40.20;18.67;;;;;;;6.68;88.65;103542.00;5022489;28;20057;-77
2022/01/23 12:00:24;;;;;;;38.53;18.67;;;;;;;6.71;88.78;103534.72;5028082;28;20216;-75
2022/01/23 12:03:27;;;;;;;37.80;18.45;;;;;;;6.74;88.39;103542.81;5026387;28;20478;-77
2022/01/23 12:06:11;;;;;;;42.75;18.45;;;;;;;6.74;88.26;103540.09;5011863;28;20188;-77
2022/01/23 12:08:37;;;;;;;37.75;16.80;;;;;;;6.72;87.42;103535.66;5010476;28;20109;-77
2022/01/23 12:11:34;;;;;;;35.55;17.67;;;;;;;6.73;87.65;103537.44;5021127;28;20112;-78
2022/01/23 12:16:22;;;;;;;41.33;18.90;;;;;;;6.71;86.84;103536.53;5023879;28;20029;-78
2022/01/23 12:16:52;;;;;;;42.95;20.70;;;;;;;6.67;86.69;103533.00;5016475;28;20113;-75
2022/01/23 12:19:20;;;;;;;43.50;21.40;;;;;;;6.68;88.18;103523.06;5014416;28;20060;-77
2022/01/23 12:21:47;;;;;;;38.85;21.90;;;;;;;6.73;88.44;103521.19;5018244;28;20559;-74
2022/01/23 12:24:15;;;;;;;48.85;23.40;;;;;;;6.76;88.13;103518.44;5009729;28;20105;-77
2022/01/23 12:26:41;;;;;;;46.17;22.48;;;;;;;6.80;88.50;103514.75;5019453;28;20014;-77
2022/01/23 12:29:29;;;;;;;46.17;23.77;;;;;;;6.84;88.45;103517.41;5010294;28;20033;-77
2022/01/23 12:32:15;;;;;;;51.55;24.92;;;;;;;6.88;88.71;103512.84;5021388;28;20045;-77
2022/01/23 12:34:56;;;;;;;46.33;21.58;;;;;;;6.86;87.61;103520.13;5012026;28;20033;-77
2022/01/23 12:37:22;;;;;;;49.35;21.92;;;;;;;6.83;87.68;103506.63;5010548;28;20029;-74
2022/01/23 12:40:25;;;;;;;50.80;24.23;;;;;;;6.85;88.22;103507.47;5016137;28;20120;-77
2022/01/23 12:43:07;;;;;;;44.75;21.73;;;;;;;6.89;88.23;103504.72;5012834;28;20164;-74
2022/01/23 12:45:52;;;;;;;47.43;23.03;;;;;;;6.87;88.04;103505.66;5025961;28;20560;-77
2022/01/23 12:48:43;;;;;;;44.33;21.73;;;;;;;6.84;87.63;103517.41;5024615;28;20025;-74
2022/01/23 12:51:11;;;;;;;38.58;19.23;;;;;;;6.79;86.13;103508.47;5029047;28;20021;-77
2022/01/23 12:53:40;;;;;;;43.60;20.63;;;;;;;6.77;88.39;103507.59;5014959;28;20042;-77
2022/01/23 12:56:09;;;;;;;44.80;22.45;;;;;;;6.75;87.54;103505.81;5022408;28;20390;-77
2022/01/23 12:58:35;;;;;;;46.13;23.50;;;;;;;6.81;87.54;103505.75;5025320;28;20054;-76
2022/01/23 13:01:04;;;;;;;44.25;21.52;;;;;;;6.85;86.96;103500.28;5026116;28;20033;-77
2022/01/23 13:03:29;;;;;;;39.65;19.50;;;;;;;6.85;86.93;103500.28;5024268;28;20025;-76
2022/01/23 13:05:55;;;;;;;37.25;18.63;;;;;;;6.87;86.81;103490.31;5029899;28;20490;-77
2022/01/23 13:08:30;;;;;;;45.97;21.90;;;;;;;6.88;87.63;103486.69;5027608;28;20025;-76
2022/01/23 13:16:21;;;;;;;38.58;19.15;;;;;;;6.87;86.15;103484.91;5020189;28;20041;-77
2022/01/23 13:30:23;;;;;;;36.17;17.98;;;;;;;7.00;85.83;103480.22;5026783;28;20563;-76
2022/01/23 13:32:50;;;;;;;35.22;18.13;;;;;;;7.01;86.31;103481.09;5016933;28;20025;-77
2022/01/23 13:35:17;;;;;;;35.28;17.17;;;;;;;7.02;85.97;103482.88;5029643;28;20025;-75
2022/01/23 13:37:46;;;;;;;37.53;18.67;;;;;;;7.02;86.16;103477.47;5026275;28;20040;-77
2022/01/23 13:40:27;;;;;;;38.13;17.77;;;;;;;7.01;84.45;103486.53;5024315;28;20485;-77
2022/01/23 13:54:04;;;;;;;38.28;19.05;;;;;;;7.03;85.05;103479.25;5020055;28;20095;-74
2022/01/23 13:59:34;;;;;;;36.28;18.20;;;;;;;6.98;83.96;103473.03;5016813;28;20132;-77
2022/01/23 14:04:38;;;;;;;34.73;18.67;;;;;;;6.99;84.54;103470.28;5029227;28;20112;-78
2022/01/23 14:07:04;;;;;;;34.30;17.73;;;;;;;6.95;82.90;103464.94;5026558;28;20061;-77
2022/01/23 14:09:37;;;;;;;37.70;17.83;;;;;;;6.92;83.98;103462.31;5026220;28;20035;-75
2022/01/23 14:12:08;;;;;;;36.10;18.10;;;;;;;6.91;83.70;103450.59;5021247;28;20030;-76
2022/01/23 14:14:33;;;;;;;31.00;16.25;;;;;;;6.89;82.86;103452.41;5026297;28;20029;-76
2022/01/23 14:17:12;;;;;;;35.70;17.95;;;;;;;6.88;83.87;103461.44;5027597;28;20030;-77
2022/01/23 14:19:37;;;;;;;39.97;16.58;;;;;;;6.84;82.90;103457.88;5015347;28;20025;-77
2022/01/23 14:22:03;;;;;;;35.00;18.17;;;;;;;6.88;83.37;103464.16;5018148;28;21015;-74
2022/01/23 14:24:35;;;;;;;35.63;18.25;;;;;;;6.87;84.37;103463.25;5024395;28;20428;-74
2022/01/23 14:27:02;;;;;;;34.37;18.70;;;;;;;6.90;84.56;103467.72;5018091;28;20037;-77
2022/01/23 14:29:34;;;;;;;34.53;17.98;;;;;;;6.89;84.94;103466.81;5040474;28;20017;-77
2022/01/23 14:32:16;;;;;;;35.53;18.17;;;;;;;6.89;84.26;103465.94;5021142;28;20033;-77
2022/01/23 14:34:41;;;;;;;32.75;17.23;;;;;;;6.87;83.97;103467.78;5026993;28;20021;-74
2022/01/23 14:37:07;;;;;;;35.67;18.02;;;;;;;6.84;82.90;103471.41;5027967;28;20140;-77
2022/01/23 14:39:33;;;;;;;35.10;17.75;;;;;;;6.82;83.61;103475.06;5025176;28;20048;-77
2022/01/23 14:42:11;;;;;;;33.90;16.92;;;;;;;6.78;83.88;103473.31;5011712;28;20026;-77
2022/01/23 14:44:37;;;;;;;33.92;16.38;;;;;;;6.78;83.61;103476.03;5019116;28;20389;-77
2022/01/23 14:47:02;;;;;;;34.58;17.70;;;;;;;6.74;82.71;103479.69;5020764;28;20083;-77
2022/01/23 14:49:28;;;;;;;32.60;16.80;;;;;;;6.73;83.23;103475.22;5018292;28;20026;-77